Observations for Trim Market St
| Time | AQI | Temp °C | Hum % | Pres Pa | CO μg/m³ | H₂S μg/m³ | NO μg/m³ | NO₂ μg/m³ | O₃ μg/m³ | SO₂ μg/m³ | PM1 μg/m³ | PM2.5 μg/m³ | PM10 μg/m³ |
|---|---|---|---|---|---|---|---|---|---|---|---|---|---|
| Friday 10 July 2026 | |||||||||||||
| 11:08 | 1 | 36.4 | 32 | 66,576 | 0 | 0 | 0 | 1.07 | 20.75 | 1.46 | 1.43 | 4.83 | 5.31 |
| 11:07 | 1 | 36.5 | 32 | 66,574 | 0 | 0 | 0 | 0 | 8.93 | 0.85 | 2.85 | 5.38 | 5.91 |
| 11:06 | 1 | 36.7 | 32 | 66,606 | 0 | 0 | 0 | 0 | 4.01 | 1.55 | 2.14 | 5.38 | 5.92 |
| 11:04 | 1 | 37 | 32 | 66,610 | 0 | 0 | 0 | 0 | 16.37 | 1.82 | 1.43 | 4.85 | 5.34 |
| 11:03 | 1 | 37.1 | 32 | 66,612 | 0 | 0 | 0 | 0 | 9.49 | 1.58 | 0.71 | 4.31 | 4.75 |
| 11:02 | 1 | 37.1 | 32 | 66,610 | 0 | 0 | 0 | 0 | 14.72 | 0.96 | 2.14 | 5.38 | 5.92 |
| 11:01 | 1 | 37.2 | 32 | 66,580 | 0 | 0 | 0 | 0 | 1.8 | 0.89 | 1.43 | 4.84 | 5.32 |
| 10:59 | 1 | 37.1 | 32 | 66,545 | 0 | 0 | 0 | 0 | 14.94 | 0.61 | 0.71 | 4.83 | 5.31 |
| 10:58 | 1 | 37 | 32 | 66,548 | 0 | 0 | 0 | 0 | 19.75 | 0.41 | 0.71 | 4.28 | 4.71 |
| 10:56 | 1 | 36.8 | 33 | 66,474 | 0.01 | 0 | 0 | 0 | 14.15 | 0.5 | 2.14 | 4.8 | 5.28 |
| 10:55 | 1 | 36.7 | 33 | 66,459 | 0.34 | 0 | 0 | 0 | 26.77 | 0.47 | 2.14 | 5.32 | 5.84 |
| 10:53 | 1 | 36.5 | 33 | 66,465 | 0 | 0 | 0 | 0 | 0 | 0 | 2.85 | 5.34 | 5.83 |
| 10:51 | 1 | 36.2 | 33 | 66,404 | 0 | 0 | 0 | 0 | 0 | 0 | 2.85 | 5.32 | 5.85 |
| 10:46 | 1 | 35.4 | 35 | 66,323 | 0 | 0 | 0 | 0 | 6.76 | 0 | 2.85 | 6.31 | 6.69 |
| 10:42 | 1 | 34.6 | 36 | 66,206 | 0 | 0 | 0 | 0 | 32.17 | 0 | 2.14 | 4.65 | 5.12 |
| 10:40 | 1 | 34.2 | 36 | 66,123 | 0 | 0 | 0 | 1.8 | 31.08 | 0 | 2.14 | 5.17 | 5.87 |
| 10:38 | 1 | 33.9 | 37 | 66,054 | 0 | 0 | 0 | 0 | 11.51 | 0 | 1.43 | 4.61 | 5.06 |
| 10:33 | 1 | 33.1 | 38 | 65,888 | 0 | 0 | 0 | 0 | 31.92 | 0 | 2.14 | 4.57 | 5.03 |
| 10:32 | 1 | 33 | 38 | 65,898 | 0 | 0 | 0 | 0 | 33.67 | 0 | 1.43 | 5.11 | 5.62 |
| 10:31 | 1 | 32.9 | 38 | 65,880 | 0 | 0 | 0 | 0 | 19.58 | 0 | 2.14 | 5.09 | 5.6 |